createdAt,value
2018-12-19T00:00:37.077Z,1.93
2018-12-19T00:03:04.531Z,3.33
2018-12-19T00:05:32.233Z,2.70
2018-12-19T00:07:59.686Z,2.40
2018-12-19T00:10:27.149Z,4.10
2018-12-19T00:12:54.620Z,3.90
2018-12-19T00:15:22.080Z,2.60
2018-12-19T00:17:49.568Z,2.87
2018-12-19T00:20:17.036Z,3.70
2018-12-19T00:22:44.512Z,3.53
2018-12-19T00:25:12.037Z,4.90
2018-12-19T00:27:39.668Z,3.33
2018-12-19T00:30:07.264Z,2.67
2018-12-19T00:32:34.751Z,2.87
2018-12-19T00:35:02.223Z,5.80
2018-12-19T00:37:29.948Z,3.03
2018-12-19T00:39:57.548Z,3.40
2018-12-19T00:42:25.316Z,2.10
2018-12-19T00:44:53.035Z,4.30
2018-12-19T00:47:20.759Z,4.40
2018-12-19T00:49:48.214Z,2.67
2018-12-19T00:52:15.717Z,4.13
2018-12-19T00:54:43.185Z,2.20
2018-12-19T00:57:10.949Z,2.73
2018-12-19T00:59:38.400Z,2.20
2018-12-19T01:02:05.864Z,3.50
2018-12-19T01:04:33.341Z,3.77
2018-12-19T01:07:00.805Z,3.90
2018-12-19T01:09:28.290Z,3.67
2018-12-19T01:11:55.777Z,3.20
2018-12-19T01:14:23.294Z,5.53
2018-12-19T01:16:50.768Z,2.97
2018-12-19T01:19:18.224Z,2.77
2018-12-19T01:21:45.723Z,3.77
2018-12-19T01:24:13.181Z,4.23
2018-12-19T01:26:40.675Z,4.97
2018-12-19T01:29:08.552Z,3.90
2018-12-19T01:31:36.012Z,2.77
2018-12-19T01:34:03.812Z,2.20
2018-12-19T01:36:31.272Z,2.30
2018-12-19T01:38:58.756Z,3.23
2018-12-19T01:41:26.224Z,2.43
2018-12-19T01:43:53.945Z,4.40
2018-12-19T01:46:21.406Z,2.30
2018-12-19T01:48:48.868Z,2.40
2018-12-19T01:51:16.737Z,3.37
2018-12-19T01:53:44.267Z,2.53
2018-12-19T01:56:11.735Z,2.53
2018-12-19T01:58:39.207Z,3.67
2018-12-19T02:01:06.964Z,6.67
2018-12-19T02:03:34.472Z,3.00
2018-12-19T02:06:02.984Z,5.33
2018-12-19T02:08:30.535Z,3.37
2018-12-19T02:10:58.457Z,4.40
2018-12-19T02:13:26.013Z,3.73
2018-12-19T02:15:53.493Z,3.63
2018-12-19T02:18:20.952Z,3.03
2018-12-19T02:20:48.416Z,3.07
2018-12-19T02:23:15.906Z,3.43
2018-12-19T02:25:43.382Z,2.17
2018-12-19T02:28:10.836Z,3.17
2018-12-19T02:30:39.143Z,2.37
2018-12-19T02:33:07.825Z,3.33
2018-12-19T02:35:35.885Z,3.47
2018-12-19T02:38:04.036Z,3.20
2018-12-19T02:40:31.588Z,2.17
2018-12-19T02:42:59.116Z,2.90
2018-12-19T02:45:26.568Z,3.00
2018-12-19T02:47:54.243Z,3.40
2018-12-19T02:50:21.737Z,2.80
2018-12-19T02:52:49.197Z,2.90
2018-12-19T02:55:16.952Z,2.23
2018-12-19T02:57:44.410Z,2.70
2018-12-19T03:00:12.177Z,3.10
2018-12-19T03:02:39.641Z,5.63
2018-12-19T03:05:07.194Z,3.13
2018-12-19T03:07:34.665Z,2.13
2018-12-19T03:10:02.138Z,2.60
2018-12-19T03:12:29.610Z,3.27
2018-12-19T03:14:57.081Z,3.47
2018-12-19T03:17:24.540Z,4.03
2018-12-19T03:19:52.025Z,1.93
2018-12-19T03:22:19.484Z,2.33
2018-12-19T03:24:47.026Z,2.10
2018-12-19T03:27:14.600Z,2.37
2018-12-19T03:29:42.049Z,1.43
2018-12-19T03:32:09.532Z,2.87
2018-12-19T03:34:37.090Z,2.40
2018-12-19T03:37:04.574Z,4.60
2018-12-19T03:39:32.040Z,3.03
2018-12-19T03:41:59.512Z,3.13
2018-12-19T03:44:27.002Z,2.17
2018-12-19T03:46:54.583Z,4.63
2018-12-19T03:49:22.417Z,3.70
2018-12-19T03:51:50.053Z,4.23
2018-12-19T03:54:17.595Z,2.80
2018-12-19T03:56:45.332Z,2.23
2018-12-19T03:59:12.787Z,1.67
2018-12-19T04:01:41.152Z,4.33
2018-12-19T04:04:08.634Z,4.10
2018-12-19T04:06:36.177Z,3.00
2018-12-19T04:09:05.769Z,2.97
2018-12-19T04:11:33.248Z,3.63
2018-12-19T04:14:00.709Z,4.67
2018-12-19T04:16:28.232Z,3.93
2018-12-19T04:18:55.697Z,3.10
2018-12-19T04:21:23.165Z,2.53
2018-12-19T04:23:50.625Z,2.30
2018-12-19T04:26:18.383Z,3.77
2018-12-19T04:28:46.252Z,3.17
2018-12-19T04:31:13.728Z,4.40
2018-12-19T04:33:42.116Z,2.37
2018-12-19T04:36:10.262Z,3.50
2018-12-19T04:38:38.000Z,3.60
2018-12-19T04:41:05.476Z,2.73
2018-12-19T04:43:32.935Z,3.43
2018-12-19T04:46:00.392Z,2.37
2018-12-19T04:48:27.881Z,2.80
2018-12-19T04:50:55.378Z,1.70
2018-12-19T04:53:22.874Z,1.70
2018-12-19T04:55:50.344Z,1.33
2018-12-19T04:58:17.824Z,3.73
2018-12-19T05:00:45.301Z,2.00
2018-12-19T05:03:12.760Z,2.60
2018-12-19T05:05:40.368Z,2.63
2018-12-19T05:08:08.120Z,2.80
2018-12-19T05:10:35.581Z,2.10
2018-12-19T05:13:03.142Z,3.77
2018-12-19T05:15:30.596Z,2.23
2018-12-19T05:17:58.147Z,4.13
2018-12-19T05:20:25.612Z,2.87
2018-12-19T05:22:53.374Z,2.93
2018-12-19T05:25:20.840Z,1.47
2018-12-19T05:27:48.316Z,2.30
2018-12-19T05:30:16.052Z,3.73
2018-12-19T05:32:43.821Z,3.40
2018-12-19T05:35:11.332Z,3.10
2018-12-19T05:37:39.418Z,4.00
2018-12-19T05:40:07.516Z,2.70
2018-12-19T05:42:34.997Z,2.80
2018-12-19T05:45:02.840Z,2.50
2018-12-19T05:47:30.475Z,5.97
2018-12-19T05:49:58.471Z,2.93
2018-12-19T05:52:26.644Z,3.50
2018-12-19T05:54:54.281Z,4.27
2018-12-19T05:57:22.104Z,3.77
2018-12-19T05:59:49.585Z,2.10
2018-12-19T06:02:17.040Z,4.27
2018-12-19T06:04:44.507Z,3.20
2018-12-19T06:07:11.969Z,4.67
2018-12-19T06:09:39.549Z,2.73
2018-12-19T06:12:06.999Z,4.80
2018-12-19T06:14:35.120Z,3.27
2018-12-19T06:17:02.759Z,2.63
2018-12-19T06:19:30.216Z,2.30
2018-12-19T06:21:57.688Z,3.23
2018-12-19T06:24:25.155Z,4.37
2018-12-19T06:26:52.681Z,4.43
2018-12-19T06:29:20.143Z,3.10
2018-12-19T06:31:47.836Z,5.63
2018-12-19T06:34:15.319Z,2.60
2018-12-19T06:36:43.021Z,4.33
2018-12-19T06:39:10.483Z,4.20
2018-12-19T06:41:37.961Z,4.80
2018-12-19T06:44:05.420Z,4.10
2018-12-19T06:46:32.879Z,4.50
2018-12-19T06:49:00.621Z,2.60
2018-12-19T06:51:28.091Z,5.40
2018-12-19T06:53:55.933Z,3.23
2018-12-19T06:56:23.702Z,4.50
2018-12-19T06:58:51.157Z,4.33
2018-12-19T07:01:18.636Z,2.67
2018-12-19T07:03:46.105Z,4.40
2018-12-19T07:06:13.592Z,5.00
2018-12-19T07:08:41.555Z,3.33
2018-12-19T07:11:09.158Z,2.60
2018-12-19T07:13:37.264Z,4.00
2018-12-19T07:16:04.993Z,1.80
2018-12-19T07:18:32.500Z,2.97
2018-12-19T07:21:00.223Z,2.70
2018-12-19T07:23:27.753Z,3.23
2018-12-19T07:25:55.440Z,2.83
2018-12-19T07:28:22.888Z,4.60
2018-12-19T07:30:50.373Z,2.33
2018-12-19T07:33:17.844Z,3.03
2018-12-19T07:35:45.300Z,2.63
2018-12-19T07:38:12.776Z,5.13
2018-12-19T07:40:45.595Z,3.30
2018-12-19T07:43:09.924Z,3.80
2018-12-19T07:45:37.405Z,3.40
2018-12-19T07:48:04.865Z,3.07
2018-12-19T07:50:32.334Z,4.53
2018-12-19T07:52:59.889Z,3.40
2018-12-19T07:55:29.620Z,3.43
2018-12-19T07:57:57.084Z,3.10
2018-12-19T08:00:27.479Z,1.67
2018-12-19T08:02:54.127Z,3.40
2018-12-19T08:05:26.133Z,3.10
2018-12-19T08:07:51.071Z,1.80
2018-12-19T08:10:18.532Z,5.03
2018-12-19T08:12:46.052Z,3.77
2018-12-19T08:15:13.520Z,3.80
2018-12-19T08:17:40.981Z,4.13
2018-12-19T08:20:08.640Z,1.73
2018-12-19T08:22:36.356Z,4.67
2018-12-19T08:25:04.288Z,5.00
2018-12-19T08:27:31.772Z,2.40
2018-12-19T08:29:59.260Z,2.83
2018-12-19T08:35:00.712Z,4.23
2018-12-19T08:37:28.472Z,3.50
2018-12-19T08:39:55.935Z,5.57
2018-12-19T08:42:23.429Z,3.00
2018-12-19T08:44:50.892Z,3.77
2018-12-19T08:47:18.384Z,2.50
2018-12-19T08:49:45.899Z,3.33
2018-12-19T08:52:13.368Z,3.97
2018-12-19T08:57:09.668Z,3.50
2018-12-19T08:59:37.424Z,2.37
2018-12-19T09:02:04.927Z,2.63
2018-12-19T09:04:32.405Z,3.50
2018-12-19T09:06:59.896Z,4.20
2018-12-19T09:09:27.368Z,3.77
2018-12-19T09:11:54.872Z,4.13
2018-12-19T09:14:22.331Z,4.00
2018-12-19T09:16:49.792Z,4.10
2018-12-19T09:19:17.408Z,4.80
2018-12-19T09:21:45.153Z,4.33
2018-12-19T09:24:12.612Z,4.03
2018-12-19T09:26:40.092Z,3.43
2018-12-19T09:29:07.552Z,4.10
2018-12-19T09:31:35.015Z,3.23
2018-12-19T09:34:02.484Z,2.60
2018-12-19T09:36:29.936Z,3.87
2018-12-19T09:38:57.397Z,3.97
2018-12-19T09:41:24.880Z,4.70
2018-12-19T09:43:52.356Z,3.60
2018-12-19T09:46:19.808Z,3.57
2018-12-19T09:48:47.299Z,2.53
2018-12-19T09:51:14.772Z,3.70
2018-12-19T09:53:42.233Z,6.63
2018-12-19T09:56:09.960Z,4.93
2018-12-19T09:58:37.429Z,3.77
2018-12-19T10:01:05.491Z,3.10
2018-12-19T10:03:34.005Z,3.47
2018-12-19T10:06:01.481Z,4.33
2018-12-19T10:08:28.949Z,4.33
2018-12-19T10:10:56.428Z,4.40
2018-12-19T10:13:23.888Z,3.03
2018-12-19T10:15:51.660Z,3.57
2018-12-19T10:18:19.140Z,3.60
2018-12-19T10:20:46.877Z,3.73
2018-12-19T10:23:14.349Z,3.37
2018-12-19T10:25:41.852Z,3.93
2018-12-19T10:28:09.341Z,2.97
2018-12-19T10:30:38.816Z,3.23
2018-12-19T10:33:06.290Z,3.60
2018-12-19T10:35:33.745Z,4.00
2018-12-19T10:38:01.220Z,4.17
2018-12-19T10:40:28.681Z,3.87
2018-12-19T10:42:56.143Z,4.67
2018-12-19T10:45:23.630Z,4.63
2018-12-19T10:47:51.169Z,2.40
2018-12-19T10:50:18.686Z,2.90
2018-12-19T10:52:46.171Z,3.57
2018-12-19T10:55:14.144Z,2.80
2018-12-19T10:57:41.633Z,2.83
2018-12-19T11:00:11.476Z,3.07
2018-12-19T11:02:38.959Z,3.87
2018-12-19T11:05:06.482Z,2.33
2018-12-19T11:07:34.028Z,3.63
2018-12-19T11:10:01.513Z,5.80
2018-12-19T11:12:28.992Z,2.37
2018-12-19T11:14:56.457Z,2.00
2018-12-19T11:17:23.936Z,3.30
2018-12-19T11:19:51.416Z,3.40
2018-12-19T11:22:20.263Z,2.90
2018-12-19T11:24:47.752Z,3.30
2018-12-19T11:27:15.228Z,3.10
2018-12-19T11:29:42.736Z,2.30
2018-12-19T11:32:10.282Z,3.43
2018-12-19T11:34:37.844Z,4.60
2018-12-19T11:37:05.349Z,1.90
2018-12-19T11:39:32.908Z,3.63
2018-12-19T11:42:00.400Z,4.00
2018-12-19T11:44:27.861Z,2.50
2018-12-19T11:46:55.341Z,4.37
2018-12-19T11:49:23.198Z,3.87
2018-12-19T11:51:50.652Z,4.27
2018-12-19T11:54:18.144Z,3.37
2018-12-19T11:56:45.612Z,4.07
2018-12-19T11:59:13.344Z,5.40
2018-12-19T12:01:41.590Z,3.63
2018-12-19T12:04:09.280Z,3.50
2018-12-19T12:06:36.753Z,3.57
2018-12-19T12:09:07.093Z,3.10
2018-12-19T12:11:34.740Z,3.67
2018-12-19T12:14:02.368Z,3.87
2018-12-19T12:16:29.848Z,4.00
2018-12-19T12:18:57.332Z,3.07
2018-12-19T12:21:24.796Z,4.80
2018-12-19T12:23:52.276Z,4.30
2018-12-19T12:26:19.900Z,5.90
2018-12-19T12:28:47.403Z,5.07
2018-12-19T12:31:15.359Z,3.33
2018-12-19T12:33:43.061Z,3.00
2018-12-19T12:36:10.700Z,4.20
2018-12-19T12:38:38.160Z,4.43
2018-12-19T12:41:06.503Z,4.57
2018-12-19T12:43:34.018Z,3.00
2018-12-19T12:46:01.486Z,4.40
2018-12-19T12:48:28.949Z,3.67
2018-12-19T12:50:56.431Z,3.43
2018-12-19T12:53:23.891Z,1.77
2018-12-19T12:55:51.352Z,1.83
2018-12-19T12:58:18.828Z,1.60
2018-12-19T13:00:46.524Z,3.13
2018-12-19T13:03:14.307Z,1.10
2018-12-19T13:05:41.769Z,1.63
2018-12-19T13:08:09.356Z,3.27
2018-12-19T13:10:36.837Z,2.50
2018-12-19T13:13:04.429Z,1.50
2018-12-19T13:15:37.503Z,1.90
2018-12-19T13:18:05.117Z,1.90
2018-12-19T13:20:32.662Z,1.87
2018-12-19T13:23:00.161Z,2.20
2018-12-19T13:25:27.616Z,2.07
2018-12-19T13:27:55.145Z,1.40
2018-12-19T13:30:22.624Z,1.27
2018-12-19T13:32:50.084Z,1.37
2018-12-19T13:35:17.565Z,1.60
2018-12-19T13:37:45.040Z,1.73
2018-12-19T13:40:12.508Z,1.50
2018-12-19T13:42:40.237Z,1.30
2018-12-19T13:45:08.422Z,1.70
2018-12-19T13:47:36.093Z,2.33
2018-12-19T13:50:05.026Z,1.97
2018-12-19T13:52:32.512Z,1.33
2018-12-19T13:55:00.089Z,1.50
2018-12-19T13:57:28.373Z,1.70
2018-12-19T13:59:56.105Z,1.77
2018-12-19T14:02:23.635Z,2.77
2018-12-19T14:04:51.180Z,1.50
2018-12-19T14:07:18.647Z,3.63
2018-12-19T14:09:46.151Z,4.23
2018-12-19T14:12:13.618Z,3.80
2018-12-19T14:14:41.385Z,5.43
2018-12-19T14:17:08.843Z,1.40
2018-12-19T14:19:36.344Z,2.17
2018-12-19T14:22:03.904Z,1.53
2018-12-19T14:24:31.496Z,1.30
2018-12-19T14:26:58.952Z,1.73
2018-12-19T14:29:26.740Z,2.00
2018-12-19T14:31:54.220Z,1.93
2018-12-19T14:34:21.746Z,2.10
2018-12-19T14:36:49.383Z,1.77
2018-12-19T14:39:16.930Z,1.87
2018-12-19T14:41:44.380Z,1.90
2018-12-19T14:44:11.953Z,1.33
2018-12-19T14:46:39.433Z,1.10
2018-12-19T14:49:06.905Z,1.30
2018-12-19T14:51:34.369Z,2.20
2018-12-19T14:54:02.125Z,1.30
2018-12-19T14:56:29.640Z,3.80
2018-12-19T14:58:57.096Z,2.70
2018-12-19T15:01:24.804Z,3.50
2018-12-19T15:03:52.280Z,2.30
2018-12-19T15:06:19.749Z,1.63
2018-12-19T15:08:47.236Z,1.50
2018-12-19T15:11:14.772Z,2.60
2018-12-19T15:13:42.253Z,1.90
2018-12-19T15:16:09.816Z,1.97
2018-12-19T15:18:37.519Z,2.17
2018-12-19T15:21:04.996Z,1.97
2018-12-19T15:23:32.744Z,2.03
2018-12-19T15:26:00.210Z,2.07
2018-12-19T15:28:27.796Z,3.03
2018-12-19T15:30:55.267Z,2.23
2018-12-19T15:33:23.073Z,2.67
2018-12-19T15:35:50.551Z,2.63
2018-12-19T15:38:18.020Z,3.47
2018-12-19T15:40:45.500Z,6.13
2018-12-19T15:43:12.964Z,5.17
2018-12-19T15:45:41.156Z,3.73
2018-12-19T15:48:08.938Z,3.10
2018-12-19T15:50:36.448Z,2.73
2018-12-19T15:53:04.070Z,3.13
2018-12-19T15:55:31.820Z,3.47
2018-12-19T15:57:59.280Z,3.77
2018-12-19T16:00:27.041Z,3.03
2018-12-19T16:02:54.509Z,3.57
2018-12-19T16:05:21.988Z,3.20
2018-12-19T16:07:49.452Z,2.30
2018-12-19T16:10:17.443Z,3.13
2018-12-19T16:12:44.945Z,3.63
2018-12-19T16:15:12.704Z,3.50
2018-12-19T16:17:40.164Z,3.83
2018-12-19T16:20:09.062Z,4.20
2018-12-19T16:22:36.533Z,3.10
2018-12-19T16:25:04.795Z,3.47
2018-12-19T16:27:32.288Z,3.40
2018-12-19T16:29:59.786Z,4.10
2018-12-19T16:32:27.398Z,3.90
2018-12-19T16:34:54.873Z,4.70
2018-12-19T16:37:22.368Z,4.53
2018-12-19T16:39:49.849Z,5.30
2018-12-19T16:42:17.335Z,4.90
2018-12-19T16:44:44.816Z,4.83
2018-12-19T16:47:12.293Z,4.80
2018-12-19T16:49:39.800Z,4.90
2018-12-19T16:52:07.539Z,4.73
2018-12-19T16:54:34.997Z,4.47
2018-12-19T16:57:02.478Z,7.37
2018-12-19T16:59:30.020Z,4.27
2018-12-19T17:01:58.166Z,4.97
2018-12-19T17:04:25.683Z,4.33
2018-12-19T17:06:53.147Z,5.10
2018-12-19T17:09:20.635Z,5.20
2018-12-19T17:11:48.123Z,4.70
2018-12-19T17:14:15.596Z,5.00
2018-12-19T17:16:43.321Z,4.27
2018-12-19T17:19:10.827Z,5.17
2018-12-19T17:21:38.321Z,4.10
2018-12-19T17:24:05.869Z,4.00
2018-12-19T17:29:07.408Z,6.10
2018-12-19T17:31:34.911Z,4.80
2018-12-19T17:34:02.381Z,3.30
2018-12-19T17:36:29.836Z,4.03
2018-12-19T17:38:57.600Z,4.10
2018-12-19T17:41:25.073Z,4.27
2018-12-19T17:43:52.820Z,3.60
2018-12-19T17:46:20.300Z,3.63
2018-12-19T17:48:47.756Z,4.57
2018-12-19T17:51:15.467Z,4.50
2018-12-19T17:53:42.960Z,4.33
2018-12-19T17:56:10.526Z,4.30
2018-12-19T17:58:38.093Z,4.80
2018-12-19T18:01:05.644Z,5.20
2018-12-19T18:03:33.111Z,6.60
2018-12-19T18:06:02.178Z,3.67
2018-12-19T18:08:29.692Z,4.47
2018-12-19T18:10:57.173Z,4.07
2018-12-19T18:13:24.632Z,5.37
2018-12-19T18:15:53.277Z,6.70
2018-12-19T18:18:20.744Z,5.90
2018-12-19T18:20:48.600Z,8.40
2018-12-19T18:23:16.694Z,6.90
2018-12-19T18:25:44.212Z,9.70
2018-12-19T18:28:11.684Z,10.00
2018-12-19T18:30:39.191Z,6.83
2018-12-19T18:33:06.645Z,5.10
2018-12-19T18:35:34.122Z,5.50
2018-12-19T18:38:01.890Z,6.10
2018-12-19T18:40:29.360Z,4.80
2018-12-19T18:42:56.904Z,4.47
2018-12-19T18:45:24.499Z,5.07
2018-12-19T18:47:51.969Z,4.97
2018-12-19T18:50:19.465Z,7.63
2018-12-19T18:52:46.937Z,6.10
2018-12-19T18:55:14.689Z,5.53
2018-12-19T18:57:42.464Z,7.23
2018-12-19T19:00:10.029Z,5.13
2018-12-19T19:02:37.769Z,3.40
2018-12-19T19:05:05.360Z,3.40
2018-12-19T19:07:32.890Z,5.73
2018-12-19T19:10:00.422Z,6.00
2018-12-19T19:12:27.896Z,6.97
2018-12-19T19:14:55.384Z,5.47
2018-12-19T19:17:22.911Z,4.00
2018-12-19T19:19:50.408Z,2.30
2018-12-19T19:22:18.273Z,3.57
2018-12-19T19:24:45.735Z,4.00
2018-12-19T19:27:13.204Z,3.30
2018-12-19T19:29:40.730Z,2.10
2018-12-19T19:32:08.236Z,2.73
2018-12-19T19:34:35.726Z,2.80
2018-12-19T19:37:03.181Z,3.07
2018-12-19T19:39:30.716Z,3.93
2018-12-19T19:41:58.276Z,2.87
2018-12-19T19:44:25.737Z,2.90
2018-12-19T19:46:53.224Z,3.37
2018-12-19T19:49:20.972Z,2.23
2018-12-19T19:51:48.437Z,2.70
2018-12-19T19:54:15.917Z,2.87
2018-12-19T19:56:43.596Z,2.53
2018-12-19T19:59:11.072Z,3.67
2018-12-19T20:01:38.548Z,2.83
2018-12-19T20:04:06.066Z,3.27
2018-12-19T20:06:33.537Z,3.60
2018-12-19T20:09:01.093Z,2.83
2018-12-19T20:11:28.614Z,3.50
2018-12-19T20:13:56.086Z,3.20
2018-12-19T20:16:23.553Z,3.97
2018-12-19T20:18:51.029Z,2.93
2018-12-19T20:21:18.556Z,3.90
2018-12-19T20:23:46.036Z,2.90
2018-12-19T20:26:13.781Z,3.20
2018-12-19T20:28:41.353Z,3.63
2018-12-19T20:31:08.895Z,2.07
2018-12-19T20:33:37.259Z,2.80
2018-12-19T20:36:04.758Z,4.47
2018-12-19T20:38:32.300Z,3.00
2018-12-19T20:40:59.764Z,4.87
2018-12-19T20:43:27.240Z,5.03
2018-12-19T20:45:54.703Z,5.40
2018-12-19T20:48:22.876Z,3.57
2018-12-19T20:50:50.343Z,3.53
2018-12-19T20:53:17.815Z,4.77
2018-12-19T20:55:45.681Z,6.07
2018-12-19T20:58:13.206Z,3.57
2018-12-19T21:00:40.664Z,2.60
2018-12-19T21:03:08.252Z,2.47
2018-12-19T21:05:35.709Z,1.80
2018-12-19T21:08:03.193Z,2.30
2018-12-19T21:10:30.668Z,3.63
2018-12-19T21:12:58.127Z,4.27
2018-12-19T21:15:25.605Z,2.30
2018-12-19T21:17:58.795Z,1.20
2018-12-19T21:20:26.349Z,0.70
2018-12-19T21:22:54.620Z,1.20
2018-12-19T21:25:22.197Z,1.13
2018-12-19T21:27:49.676Z,2.17
2018-12-19T21:30:17.132Z,1.50
2018-12-19T21:32:44.816Z,0.73
2018-12-19T21:35:12.308Z,1.10
2018-12-19T21:37:39.772Z,0.90
2018-12-19T21:40:07.310Z,0.70
2018-12-19T21:42:34.805Z,0.93
2018-12-19T21:45:02.386Z,0.77
2018-12-19T21:47:29.843Z,2.20
2018-12-19T21:49:57.325Z,1.13
2018-12-19T21:52:24.816Z,1.00
2018-12-19T21:54:52.278Z,1.00
2018-12-19T21:57:20.017Z,1.10
2018-12-19T21:59:47.480Z,1.77
2018-12-19T22:02:14.973Z,1.43
2018-12-19T22:04:42.698Z,1.30
2018-12-19T22:07:10.239Z,1.17
2018-12-19T22:09:37.858Z,1.23
2018-12-19T22:12:05.780Z,1.30
2018-12-19T22:14:33.286Z,1.23
2018-12-19T22:17:06.553Z,1.83
2018-12-19T22:19:34.070Z,0.90
2018-12-19T22:22:01.667Z,1.73
2018-12-19T22:24:29.414Z,2.07
2018-12-19T22:26:56.979Z,1.47
2018-12-19T22:29:25.244Z,1.10
2018-12-19T22:31:52.783Z,1.30
2018-12-19T22:34:20.240Z,1.80
2018-12-19T22:36:47.777Z,1.00
2018-12-19T22:39:18.252Z,1.27
2018-12-19T22:41:45.731Z,1.90
2018-12-19T22:44:13.180Z,1.93
2018-12-19T22:46:40.715Z,1.00
2018-12-19T22:49:08.241Z,3.17
2018-12-19T22:51:35.744Z,1.67
2018-12-19T22:54:03.424Z,0.97
2018-12-19T22:56:30.911Z,1.87
2018-12-19T22:58:58.573Z,1.43
2018-12-19T23:01:31.832Z,2.07
2018-12-19T23:04:04.940Z,2.60
2018-12-19T23:06:32.499Z,2.67
2018-12-19T23:09:00.004Z,1.77
2018-12-19T23:11:27.651Z,1.60
2018-12-19T23:13:55.258Z,1.10
2018-12-19T23:16:22.815Z,1.60
2018-12-19T23:18:50.396Z,1.53
2018-12-19T23:21:18.007Z,1.73
2018-12-19T23:23:45.496Z,1.83
2018-12-19T23:26:13.007Z,2.10
2018-12-19T23:28:40.562Z,1.53
2018-12-19T23:31:08.233Z,1.27
2018-12-19T23:33:35.729Z,2.10
2018-12-19T23:36:03.292Z,1.37
2018-12-19T23:38:30.852Z,1.60
2018-12-19T23:40:58.374Z,1.50
2018-12-19T23:43:26.012Z,2.17
2018-12-19T23:45:53.502Z,1.30
2018-12-19T23:48:21.019Z,2.23
2018-12-19T23:50:48.604Z,1.83
2018-12-19T23:53:16.129Z,2.60
2018-12-19T23:55:43.753Z,1.77
2018-12-19T23:58:11.243Z,2.10
